Time;durP1;ratioP1;P1;durP2;ratioP2;P2;SDS_P1;SDS_P2;PMS_P1;PMS_P2;Temp;Humidity;BMP_temperature;BMP_pressure;BME280_temperature;BME280_humidity;BME280_pressure;Samples;Min_cycle;Max_cycle;Signal;HPM_P1;HPM_P2
2021/11/16 00:02:14;;;;;;;64.18;25.40;;;;;;;3.88;91.77;101285.78;4973719;28;20053;-64
2021/11/16 00:04:59;;;;;;;63.65;25.48;;;;;;;3.89;91.55;101284.84;4975101;28;20074;-63
2021/11/16 00:07:44;;;;;;;62.83;25.77;;;;;;;3.90;91.20;101286.56;4973566;28;20061;-64
2021/11/16 00:10:29;;;;;;;70.57;25.33;;;;;;;3.91;91.63;101288.31;4968331;28;20077;-63
2021/11/16 00:13:15;;;;;;;59.20;24.98;;;;;;;3.90;92.31;101270.63;4972173;28;20058;-64
2021/11/16 00:16:00;;;;;;;62.10;26.23;;;;;;;3.91;91.82;101273.25;4969297;28;20114;-64
2021/11/16 00:18:47;;;;;;;74.13;27.17;;;;;;;3.87;91.79;101269.00;4974915;28;20343;-64
2021/11/16 00:21:32;;;;;;;61.63;25.27;;;;;;;3.84;91.41;101263.84;4974788;28;20135;-64
2021/11/16 00:24:20;;;;;;;60.83;24.65;;;;;;;3.87;91.69;101276.09;4972654;28;20054;-64
2021/11/16 00:27:07;;;;;;;59.85;24.00;;;;;;;3.89;91.39;101279.53;4971587;28;20132;-63
2021/11/16 00:29:52;;;;;;;58.67;23.70;;;;;;;3.85;91.79;101273.53;4967839;28;20105;-64
2021/11/16 00:32:37;;;;;;;55.40;24.80;;;;;;;3.88;91.42;101284.00;4971898;28;20069;-64
2021/11/16 00:35:24;;;;;;;66.85;25.80;;;;;;;3.87;91.30;101278.75;4970068;28;20149;-63
2021/11/16 00:38:11;;;;;;;70.68;26.85;;;;;;;3.88;91.42;101285.78;4973329;28;20053;-64
2021/11/16 00:40:56;;;;;;;59.30;24.00;;;;;;;3.87;91.38;101274.31;4973204;28;20061;-63
2021/11/16 00:43:42;;;;;;;67.18;24.70;;;;;;;3.88;90.95;101272.50;4970064;28;20559;-65
2021/11/16 00:46:27;;;;;;;65.53;27.10;;;;;;;3.86;91.92;101279.69;4972030;28;20061;-64
2021/11/16 00:49:12;;;;;;;72.70;25.73;;;;;;;3.83;91.61;101274.53;4972070;28;20097;-63
2021/11/16 00:51:58;;;;;;;64.03;24.88;;;;;;;3.85;91.98;101276.19;4969942;28;20153;-64
2021/11/16 00:54:43;;;;;;;71.10;26.77;;;;;;;3.83;91.83;101269.25;4971839;28;20057;-63
2021/11/16 00:57:28;;;;;;;67.85;25.83;;;;;;;3.81;91.72;101270.19;4971851;28;20074;-64
2021/11/16 01:00:15;;;;;;;69.20;24.77;;;;;;;3.78;92.10;101267.66;4970796;28;20125;-63
2021/11/16 01:03:00;;;;;;;72.05;25.63;;;;;;;3.81;91.90;101275.50;4973100;28;20080;-64
2021/11/16 01:05:46;;;;;;;63.75;25.30;;;;;;;3.80;91.59;101271.13;4971686;28;20125;-64
2021/11/16 01:08:33;;;;;;;67.57;24.80;;;;;;;3.80;91.67;101265.81;4972695;28;20445;-64
2021/11/16 01:11:18;;;;;;;74.05;27.27;;;;;;;3.80;92.36;101260.50;4970306;28;20093;-64
2021/11/16 01:14:03;;;;;;;76.07;26.65;;;;;;;3.78;92.77;101257.03;4971518;28;20053;-63
2021/11/16 01:16:49;;;;;;;59.77;25.33;;;;;;;3.78;92.24;101257.03;4970784;28;20054;-64
2021/11/16 01:19:34;;;;;;;71.93;28.52;;;;;;;3.76;91.74;101250.94;4973505;28;20309;-64
2021/11/16 01:22:19;;;;;;;77.55;25.98;;;;;;;3.74;92.35;101247.50;4971835;28;20058;-63
2021/11/16 01:25:07;;;;;;;75.00;27.63;;;;;;;3.66;92.76;101236.41;4968840;28;20197;-63
2021/11/16 01:27:56;;;;;;;72.55;27.17;;;;;;;3.66;92.67;101233.75;4969826;28;20053;-63
2021/11/16 01:30:45;;;;;;;74.10;28.48;;;;;;;3.67;92.58;101232.84;4971651;28;20066;-65
2021/11/16 01:33:40;;;;;;;72.50;25.45;;;;;;;3.71;92.94;101233.53;4972609;28;20126;-63
2021/11/16 01:36:25;;;;;;;81.05;27.52;;;;;;;3.67;92.80;101227.53;4970518;28;20460;-62
2021/11/16 01:39:10;;;;;;;75.07;27.52;;;;;;;3.64;93.09;101221.47;4972420;28;20054;-64
2021/11/16 01:41:57;;;;;;;77.13;28.30;;;;;;;3.65;92.32;101229.38;4971695;28;20106;-63
2021/11/16 01:44:42;;;;;;;76.95;26.92;;;;;;;3.68;92.58;101225.72;4970768;28;20054;-63
2021/11/16 01:47:28;;;;;;;74.68;27.20;;;;;;;3.68;92.41;101226.59;4971748;28;20061;-63
2021/11/16 01:50:15;;;;;;;82.40;29.02;;;;;;;3.64;92.42;101227.66;4965959;28;20601;-64
2021/11/16 01:53:00;;;;;;;70.15;27.00;;;;;;;3.66;92.95;101233.75;4971690;28;20054;-64
2021/11/16 01:55:46;;;;;;;81.60;26.83;;;;;;;3.60;93.12;101226.09;4969627;28;20061;-63
2021/11/16 01:58:32;;;;;;;71.85;26.80;;;;;;;3.65;92.74;101228.50;4969583;28;20523;-64
2021/11/16 02:01:18;;;;;;;71.45;25.73;;;;;;;3.69;93.22;101224.78;4970438;28;20170;-64
2021/11/16 02:04:04;;;;;;;76.55;27.52;;;;;;;3.67;92.80;101227.53;4965604;28;20054;-64
2021/11/16 02:06:50;;;;;;;69.22;24.85;;;;;;;3.70;93.44;101226.50;4969766;28;20123;-64
2021/11/16 02:09:36;;;;;;;78.65;28.10;;;;;;;3.69;92.87;101220.34;4970643;28;20528;-64
2021/11/16 02:12:21;;;;;;;84.87;28.13;;;;;;;3.64;93.64;101211.72;4967355;28;20054;-64
2021/11/16 02:15:09;;;;;;;77.82;26.90;;;;;;;3.62;92.97;101210.09;4970732;28;20801;-64
2021/11/16 02:17:54;;;;;;;79.15;28.73;;;;;;;3.63;93.47;101217.13;4972220;28;20074;-63
2021/11/16 02:20:42;;;;;;;77.82;28.67;;;;;;;3.66;94.32;101216.94;4972174;28;20065;-63
2021/11/16 02:23:27;;;;;;;83.30;29.42;;;;;;;3.69;93.68;101217.69;4969784;28;20554;-63
2021/11/16 02:26:13;;;;;;;75.85;27.05;;;;;;;3.69;92.79;101212.38;4969170;28;20106;-63
2021/11/16 02:28:58;;;;;;;;;;;;;;;3.69;92.64;101209.72;4969342;28;20532;-63
2021/11/16 02:31:45;;;;;;;75.20;28.05;;;;;;;3.65;93.41;101205.47;4970295;28;20108;-64
2021/11/16 02:34:30;;;;;;;;;;;;;;;3.72;93.23;101206.91;4971042;28;20102;-64
2021/11/16 02:37:16;;;;;;;82.60;31.60;;;;;;;3.70;93.68;101199.97;4970619;28;20016;-64
2021/11/16 02:40:03;;;;;;;74.50;26.33;;;;;;;3.69;93.73;101198.25;4964304;28;20058;-64
2021/11/16 02:42:48;;;;;;;81.85;29.75;;;;;;;3.68;93.99;101202.69;4970856;28;20061;-65
2021/11/16 02:45:33;;;;;;;84.47;27.93;;;;;;;3.65;93.78;101186.88;4964530;28;20145;-63
2021/11/16 02:48:18;;;;;;;87.60;26.88;;;;;;;3.61;93.47;101190.66;4969420;28;20898;-64
2021/11/16 02:51:06;;;;;;;90.10;31.92;;;;;;;3.58;94.32;101195.25;4970570;28;20058;-64
2021/11/16 02:53:53;;;;;;;85.82;31.75;;;;;;;3.53;94.50;101192.81;4964562;28;20528;-64
2021/11/16 02:56:39;;;;;;;88.03;30.33;;;;;;;3.57;94.44;101191.75;4970283;28;20054;-63
2021/11/16 02:59:24;;;;;;;86.80;31.45;;;;;;;3.56;94.56;101182.06;4970946;28;20066;-63
2021/11/16 03:02:11;;;;;;;90.57;29.77;;;;;;;3.56;93.75;101175.91;4971058;28;20057;-64
2021/11/16 03:04:56;;;;;;;87.70;30.60;;;;;;;3.60;93.96;101175.66;4970997;28;20062;-64
2021/11/16 03:07:46;;;;;;;89.27;29.27;;;;;;;3.62;94.12;101173.78;4970027;28;20049;-63
2021/11/16 03:10:32;;;;;;;90.50;30.95;;;;;;;3.55;94.80;101160.88;4967456;28;20404;-64
2021/11/16 03:13:19;;;;;;;83.75;28.65;;;;;;;3.58;94.58;101164.25;4970095;28;20166;-64
2021/11/16 03:16:06;;;;;;;91.85;31.55;;;;;;;3.52;94.50;101164.56;4959792;28;20045;-64
2021/11/16 03:18:53;;;;;;;89.97;30.35;;;;;;;3.56;94.98;101162.63;4966789;28;20631;-65
2021/11/16 03:21:42;;;;;;;84.88;28.83;;;;;;;3.60;94.13;101165.03;4973575;28;20185;-65
2021/11/16 03:24:31;;;;;;;81.60;29.73;;;;;;;3.62;94.00;101163.16;4974925;28;20058;-63
2021/11/16 03:27:19;;;;;;;85.05;29.92;;;;;;;3.61;94.26;101160.59;4972803;28;20053;-64
2021/11/16 03:30:06;;;;;;;84.82;28.50;;;;;;;3.61;94.53;101164.09;4971380;28;20512;-63
2021/11/16 03:32:51;;;;;;;90.60;30.08;;;;;;;3.54;94.26;101162.69;4974446;28;20062;-64
2021/11/16 03:35:37;;;;;;;88.00;29.55;;;;;;;3.58;93.85;101163.41;4973934;28;20129;-63
2021/11/16 03:38:23;;;;;;;83.13;29.40;;;;;;;3.64;94.14;101155.97;4974170;28;20113;-63
2021/11/16 03:41:08;;;;;;;;;;;;;;;3.58;94.24;101153.66;4975657;28;20078;-64
2021/11/16 03:43:55;;;;;;;79.40;27.40;;;;;;;3.63;94.27;101148.94;4974202;28;19929;-63
2021/11/16 03:46:40;;;;;;;74.05;28.08;;;;;;;3.65;93.42;101149.72;4973661;28;20711;-64
2021/11/16 03:49:25;;;;;;;87.35;30.73;;;;;;;3.57;94.39;101153.72;4973707;28;20062;-62
2021/11/16 03:52:10;;;;;;;78.03;28.58;;;;;;;3.58;93.64;101153.66;4967212;28;20057;-64
2021/11/16 03:54:55;;;;;;;72.80;28.45;;;;;;;3.55;93.72;101148.47;4972079;28;20429;-64
2021/11/16 03:57:41;;;;;;;80.45;28.40;;;;;;;3.60;93.77;101151.78;4973845;28;20431;-64
2021/11/16 04:00:29;;;;;;;;;;;;;;;3.62;94.17;101154.34;4970463;28;20105;-62
2021/11/16 04:03:15;;;;;;;84.22;29.60;;;;;;;3.59;94.37;101147.41;4975089;28;20399;-64
2021/11/16 04:06:00;;;;;;;70.43;26.00;;;;;;;3.61;93.90;101149.97;4970881;28;20058;-62
2021/11/16 04:08:46;;;;;;;75.15;28.65;;;;;;;3.62;93.93;101154.34;4974311;28;20653;-64
2021/11/16 04:11:31;;;;;;;71.60;26.67;;;;;;;3.61;93.56;101153.47;4972547;28;20058;-63
2021/11/16 04:14:17;;;;;;;86.95;27.63;;;;;;;3.54;93.99;101149.41;4974559;28;20110;-63
2021/11/16 04:17:05;;;;;;;75.00;28.60;;;;;;;3.52;93.57;101153.94;4973076;28;20198;-62
2021/11/16 04:19:49;;;;;;;75.15;27.50;;;;;;;3.51;94.31;101142.47;4972774;28;20066;-64
2021/11/16 04:22:36;;;;;;;75.57;28.35;;;;;;;3.48;93.46;101139.13;4973662;28;20347;-64
2021/11/16 04:25:21;;;;;;;73.07;27.88;;;;;;;3.44;94.09;101140.22;4968176;28;20202;-63
2021/11/16 04:28:08;;;;;;;69.25;27.15;;;;;;;3.44;94.00;101134.91;4973735;28;20049;-63
2021/11/16 04:30:54;;;;;;;75.72;26.85;;;;;;;3.43;94.09;101135.81;4972756;28;20054;-64
2021/11/16 04:33:40;;;;;;;72.25;27.55;;;;;;;3.43;94.27;101131.41;4965239;28;20305;-63
2021/11/16 04:36:27;;;;;;;92.03;27.27;;;;;;;3.46;94.20;101133.03;4972103;28;20132;-62
2021/11/16 04:39:12;;;;;;;75.80;26.13;;;;;;;3.50;93.93;101116.00;4972156;28;20058;-64
2021/11/16 04:41:57;;;;;;;79.70;25.98;;;;;;;3.50;94.48;101118.66;4967098;28;20098;-66
2021/11/16 04:44:43;;;;;;;68.60;26.17;;;;;;;3.51;94.00;101115.94;4974009;28;20057;-63
2021/11/16 04:47:32;;;;;;;80.47;27.70;;;;;;;3.51;94.04;101120.38;4972234;28;20058;-64
2021/11/16 04:50:29;;;;;;;79.60;27.95;;;;;;;3.53;94.50;101123.81;4970372;28;20054;-63
2021/11/16 04:53:35;;;;;;;69.97;26.30;;;;;;;3.51;94.80;101115.06;4972855;28;20133;-63
2021/11/16 04:59:46;;;;;;;76.07;26.63;;;;;;;3.56;94.29;101115.72;4912789;29;20467;-62
2021/11/16 05:02:36;;;;;;;80.93;27.33;;;;;;;3.57;94.10;101114.78;4912735;29;20479;-63
2021/11/16 05:05:23;;;;;;;68.38;24.95;;;;;;;3.58;93.98;101112.97;4964432;28;20128;-64
2021/11/16 05:08:08;;;;;;;78.20;26.63;;;;;;;3.63;93.86;101110.94;4970848;28;20054;-64
2021/11/16 05:10:53;;;;;;;72.57;25.98;;;;;;;3.64;94.21;101113.50;4972797;28;20050;-62
2021/11/16 05:13:43;;;;;;;77.20;28.08;;;;;;;3.63;94.37;101110.94;4965703;28;20627;-64
2021/11/16 05:16:27;;;;;;;80.68;26.80;;;;;;;3.61;94.42;101121.63;4970909;28;20058;-65
2021/11/16 05:19:12;;;;;;;81.45;29.33;;;;;;;3.60;94.29;101119.91;4971836;28;20417;-63
2021/11/16 05:21:59;;;;;;;89.07;28.40;;;;;;;3.60;94.76;101114.59;4972144;28;20429;-64
2021/11/16 05:24:44;;;;;;;75.60;25.63;;;;;;;3.64;95.03;101116.16;4973353;28;20109;-65
2021/11/16 05:27:29;;;;;;;84.65;27.02;;;;;;;3.63;95.24;101118.88;4971085;28;20049;-63
2021/11/16 05:30:15;;;;;;;80.00;28.80;;;;;;;3.68;95.11;101123.03;4973298;28;20061;-64
2021/11/16 05:33:00;;;;;;;87.18;27.80;;;;;;;3.68;94.67;101127.50;4971388;28;20199;-64
2021/11/16 05:35:45;;;;;;;80.97;27.05;;;;;;;3.71;94.38;101128.19;4972257;28;20061;-62
2021/11/16 05:38:34;;;;;;;85.78;30.13;;;;;;;3.66;94.88;101127.53;4971730;28;20057;-61
2021/11/16 05:41:20;;;;;;;70.68;24.23;;;;;;;3.72;95.13;101132.56;4965262;28;20073;-64
2021/11/16 05:44:07;;;;;;;86.57;26.42;;;;;;;3.73;94.58;101126.31;4972367;28;20066;-66
2021/11/16 05:46:52;;;;;;;;;;;;;;;3.72;95.10;101127.25;4964856;28;20073;-63
2021/11/16 05:49:37;;;;;;;84.63;27.48;;;;;;;3.71;94.63;101117.56;4971692;28;20064;-62
2021/11/16 05:52:23;;;;;;;76.03;29.35;;;;;;;3.71;95.54;101120.22;4971314;28;20528;-63
2021/11/16 05:55:10;;;;;;;75.72;27.77;;;;;;;3.73;95.42;101118.34;4972341;28;20125;-63
2021/11/16 05:57:55;;;;;;;79.75;27.77;;;;;;;3.73;95.16;101107.72;4965293;28;20089;-64
2021/11/16 06:00:40;;;;;;;84.55;28.23;;;;;;;3.78;94.98;101112.78;4970908;28;20058;-63
2021/11/16 06:03:25;;;;;;;80.10;26.80;;;;;;;3.76;95.39;101110.22;4965062;28;20272;-62
2021/11/16 06:06:10;;;;;;;84.28;27.00;;;;;;;3.76;94.90;101115.50;4962955;28;20174;-65
2021/11/16 06:08:56;;;;;;;67.32;26.15;;;;;;;3.79;95.55;101114.53;4970206;28;20556;-65
2021/11/16 06:11:43;;;;;;;93.05;30.58;;;;;;;3.71;95.30;101112.25;4971428;28;20182;-63
2021/11/16 06:14:29;;;;;;;84.88;29.33;;;;;;;3.70;95.81;101115.84;4970345;28;20057;-63
2021/11/16 06:17:14;;;;;;;81.72;29.60;;;;;;;3.71;95.56;101116.72;4962129;28;20060;-62
2021/11/16 06:20:00;;;;;;;82.07;28.35;;;;;;;3.69;95.71;101124.75;4964850;28;20559;-64
2021/11/16 06:22:45;;;;;;;90.97;28.33;;;;;;;3.70;95.79;101121.16;4968926;28;20133;-63
2021/11/16 06:25:31;;;;;;;82.83;28.33;;;;;;;3.71;95.60;101122.88;4960963;28;20062;-64
2021/11/16 06:28:18;;;;;;;77.43;27.93;;;;;;;3.77;95.41;101125.19;4963092;28;20308;-62
2021/11/16 06:31:03;;;;;;;90.22;29.20;;;;;;;3.73;95.14;101126.31;4963032;28;20322;-65
2021/11/16 06:33:48;;;;;;;73.63;28.13;;;;;;;3.76;95.48;101128.78;4966396;28;20058;-62
2021/11/16 06:36:36;;;;;;;84.80;28.10;;;;;;;3.76;95.59;101130.59;4965808;28;20125;-62
2021/11/16 06:39:23;;;;;;;80.45;28.40;;;;;;;3.77;95.24;101132.31;4966064;28;20137;-63
2021/11/16 06:42:12;;;;;;;;;;;;;;;3.81;95.78;101133.88;4964477;28;20063;-64
2021/11/16 06:44:59;;;;;;;90.78;27.83;;;;;;;3.74;94.80;101137.78;4966540;28;20379;-63
2021/11/16 06:47:44;;;;;;;83.68;29.20;;;;;;;3.75;94.94;101135.03;4965411;28;20132;-64
2021/11/16 06:50:30;;;;;;;79.88;28.83;;;;;;;3.71;95.45;101127.31;4965526;28;20109;-62
2021/11/16 06:53:23;;;;;;;76.97;26.38;;;;;;;3.74;95.60;101122.72;4967643;28;20062;-63
2021/11/16 06:56:08;;;;;;;90.53;29.58;;;;;;;3.75;94.89;101121.78;4966258;28;20067;-64
2021/11/16 06:58:53;;;;;;;77.97;29.03;;;;;;;3.78;95.39;101124.25;4965687;28;20054;-63
2021/11/16 07:01:39;;;;;;;93.82;27.50;;;;;;;3.81;95.43;101124.13;4966002;28;20069;-64
2021/11/16 07:04:24;;;;;;;;;;;;;;;3.83;95.02;101120.53;4966572;28;20058;-63
2021/11/16 07:07:10;;;;;;;86.50;29.35;;;;;;;3.88;94.69;101123.78;4960782;28;19977;-63
2021/11/16 07:10:00;;;;;;;81.63;30.65;;;;;;;3.85;94.96;101124.81;4964340;28;20050;-65
2021/11/16 07:12:45;;;;;;;86.60;29.17;;;;;;;3.90;94.59;101128.06;4971191;28;20129;-63
2021/11/16 07:15:33;;;;;;;80.45;28.35;;;;;;;3.87;94.35;101119.41;4973148;28;20421;-63
2021/11/16 07:18:19;;;;;;;89.72;30.15;;;;;;;3.84;94.73;101116.94;4972572;28;20520;-62
2021/11/16 07:21:05;;;;;;;;;;;;;;;3.85;94.73;101116.00;4973366;28;20062;-64
2021/11/16 07:24:02;;;;;;;98.47;30.37;;;;;;;3.85;94.65;101113.34;4973002;28;19929;-65
2021/11/16 07:26:57;;;;;;;90.13;30.35;;;;;;;3.88;94.86;101123.78;4972399;28;20066;-64
2021/11/16 07:29:47;;;;;;;73.97;25.63;;;;;;;3.96;94.74;101126.91;4972780;28;20106;-62
2021/11/16 07:32:42;;;;;;;75.85;26.27;;;;;;;4.01;94.28;101124.84;4973028;28;20062;-63
2021/11/16 07:35:30;;;;;;;67.22;25.33;;;;;;;4.01;94.03;101135.47;4972691;28;20058;-63
2021/11/16 07:38:19;;;;;;;68.35;24.73;;;;;;;4.04;93.80;101130.03;4972674;28;20138;-66
2021/11/16 07:41:05;;;;;;;75.45;26.95;;;;;;;4.09;93.47;101130.63;4973022;28;20061;-62
2021/11/16 07:43:51;;;;;;;72.57;27.17;;;;;;;4.09;93.71;101123.53;4972814;28;20077;-62
2021/11/16 07:46:36;;;;;;;71.15;26.77;;;;;;;4.14;93.42;101120.59;4972592;28;20293;-64
2021/11/16 07:49:22;;;;;;;83.90;28.60;;;;;;;4.16;93.56;101118.75;4972414;28;20077;-63
2021/11/16 07:52:08;;;;;;;85.05;29.88;;;;;;;4.16;92.99;101123.22;4972470;28;20061;-63
2021/11/16 07:54:54;;;;;;;80.80;28.17;;;;;;;4.21;93.78;101122.00;4972717;28;20054;-63
2021/11/16 07:57:45;;;;;;;64.82;24.88;;;;;;;4.23;93.73;101124.56;4972495;28;20148;-63
2021/11/16 08:00:32;;;;;;;88.82;29.15;;;;;;;4.24;93.64;101116.53;4972932;28;20145;-63
2021/11/16 08:03:21;;;;;;;80.90;28.67;;;;;;;4.26;93.68;101117.31;4975653;28;20194;-62
2021/11/16 08:06:12;;;;;;;76.15;27.63;;;;;;;4.29;93.04;101117.16;4975983;28;20178;-65
2021/11/16 08:09:09;;;;;;;78.20;30.42;;;;;;;4.33;93.21;101110.72;4956511;28;20080;-65
2021/11/16 08:12:05;;;;;;;85.45;29.00;;;;;;;4.33;92.96;101105.41;4956773;29;20154;-63
2021/11/16 08:14:58;;;;;;;86.20;27.08;;;;;;;4.38;93.20;101111.34;4975658;28;20113;-63
2021/11/16 08:17:44;;;;;;;80.05;29.38;;;;;;;4.38;92.79;101106.03;4975600;28;20058;-62
2021/11/16 08:20:29;;;;;;;74.80;28.83;;;;;;;4.42;92.63;101109.38;4976245;28;20062;-63
2021/11/16 08:23:14;;;;;;;76.22;28.45;;;;;;;4.48;92.91;101113.47;4976144;28;20109;-65
2021/11/16 08:26:01;;;;;;;87.07;29.25;;;;;;;4.45;92.58;101105.69;4975545;28;20508;-62
2021/11/16 08:28:47;;;;;;;79.55;28.48;;;;;;;4.48;92.14;101111.66;4975904;28;20053;-63
2021/11/16 08:31:37;;;;;;;83.40;27.77;;;;;;;4.53;92.17;101101.66;4975839;28;20061;-63
2021/11/16 08:34:22;;;;;;;92.53;28.58;;;;;;;4.56;91.65;101088.19;4975949;28;20140;-65
2021/11/16 08:37:10;;;;;;;80.55;29.55;;;;;;;4.61;91.95;101087.91;4975303;28;20058;-62
2021/11/16 08:39:58;;;;;;;77.60;28.17;;;;;;;4.63;91.41;101086.06;4975377;28;20201;-64
2021/11/16 08:42:52;;;;;;;81.82;28.67;;;;;;;4.65;91.82;101089.47;4975696;28;20531;-64
2021/11/16 08:45:38;;;;;;;84.43;29.42;;;;;;;4.70;91.46;101088.28;4975599;28;20066;-63
2021/11/16 08:48:25;;;;;;;84.78;29.00;;;;;;;4.73;91.30;101086.38;4974752;28;20529;-63
2021/11/16 08:51:17;;;;;;;82.00;27.83;;;;;;;4.70;91.16;101088.28;4975472;28;20065;-64
2021/11/16 08:54:01;;;;;;;85.75;28.95;;;;;;;4.73;91.49;101081.91;4975350;28;20425;-62
2021/11/16 08:56:46;;;;;;;77.75;30.35;;;;;;;4.80;91.40;101075.31;4974916;28;20065;-64
2021/11/16 08:59:37;;;;;;;80.18;27.48;;;;;;;4.66;91.41;101068.13;4975407;28;20074;-63
2021/11/16 09:02:24;;;;;;;87.50;30.42;;;;;;;4.66;91.55;101069.94;4975131;28;20090;-63
2021/11/16 09:05:11;;;;;;;90.22;30.17;;;;;;;4.70;91.09;101071.47;4974866;28;20133;-63
2021/11/16 09:07:57;;;;;;;78.78;29.92;;;;;;;4.75;92.24;101074.72;4974611;28;20061;-61
2021/11/16 09:10:44;;;;;;;85.63;30.10;;;;;;;4.85;91.41;101065.25;4956479;28;20343;-65
2021/11/16 09:13:33;;;;;;;95.15;28.65;;;;;;;4.95;91.19;101063.78;4962669;28;20116;-64
2021/11/16 09:16:21;;;;;;;78.57;29.02;;;;;;;4.94;90.58;101064.75;4962076;28;20110;-62
2021/11/16 09:19:06;;;;;;;77.63;28.95;;;;;;;4.84;90.93;101062.69;4955381;28;20461;-63
2021/11/16 09:21:52;;;;;;;87.55;30.67;;;;;;;4.87;90.96;101063.41;4955608;29;20062;-63
2021/11/16 09:24:38;;;;;;;85.72;29.33;;;;;;;4.86;90.56;101061.69;4955355;29;20057;-63
2021/11/16 09:27:39;;;;;;;81.05;28.83;;;;;;;4.85;91.16;101059.09;4955266;29;20070;-63
2021/11/16 09:30:31;;;;;;;78.57;29.00;;;;;;;4.87;90.64;101059.88;4955475;28;20430;-63
2021/11/16 09:33:20;;;;;;;78.57;29.27;;;;;;;4.83;90.35;101055.66;4955016;29;20594;-64
2021/11/16 09:36:05;;;;;;;78.47;28.55;;;;;;;4.75;90.88;101057.91;4955071;29;20074;-64
2021/11/16 09:38:53;;;;;;;90.18;29.77;;;;;;;4.72;91.37;101052.75;4954642;28;20062;-62
2021/11/16 09:41:41;;;;;;;71.82;28.00;;;;;;;4.69;90.85;101057.31;4955354;29;20078;-62
2021/11/16 09:44:29;;;;;;;70.68;27.40;;;;;;;4.77;91.50;101053.38;4955263;29;20062;-64
2021/11/16 09:47:17;;;;;;;77.70;30.98;;;;;;;4.81;90.90;101052.22;4954324;29;20241;-63
2021/11/16 09:50:08;;;;;;;83.72;27.77;;;;;;;4.87;90.90;101044.78;4954961;28;20537;-63
2021/11/16 09:52:56;;;;;;;72.35;26.33;;;;;;;4.93;90.53;101040.88;4954773;29;20531;-62
2021/11/16 09:55:41;;;;;;;72.72;26.38;;;;;;;5.09;90.20;101044.41;4954739;29;20062;-63
2021/11/16 09:58:30;;;;;;;69.05;28.38;;;;;;;5.09;89.82;101054.16;4954595;28;20178;-63
2021/11/16 10:01:37;;;;;;;74.75;28.45;;;;;;;5.01;89.63;101059.94;4954140;29;20066;-63
2021/11/16 10:04:25;;;;;;;;;;;;;;;5.00;90.22;101058.22;4955522;29;20201;-63
2021/11/16 10:07:13;;;;;;;67.63;26.95;;;;;;;5.04;89.80;101042.94;4956499;28;19977;-64
2021/11/16 10:09:58;;;;;;;76.35;26.90;;;;;;;4.93;90.35;101052.38;4961449;28;20094;-63
2021/11/16 10:12:45;;;;;;;66.05;27.33;;;;;;;4.92;90.43;101050.69;4954288;29;20062;-64
2021/11/16 10:15:33;;;;;;;75.45;26.55;;;;;;;4.91;90.34;101048.97;4954224;29;20617;-62
2021/11/16 10:18:20;;;;;;;70.40;25.60;;;;;;;4.89;91.01;101042.88;4954123;28;20202;-64
2021/11/16 10:21:07;;;;;;;76.07;27.02;;;;;;;4.95;90.42;101044.31;4961834;28;20206;-62
2021/11/16 10:23:55;;;;;;;73.03;26.70;;;;;;;4.93;89.90;101040.88;4964561;28;20504;-60
2021/11/16 10:26:40;;;;;;;68.00;25.98;;;;;;;4.96;90.13;101038.03;4971582;28;20062;-63
2021/11/16 10:29:25;;;;;;;68.15;26.77;;;;;;;4.98;90.67;101034.38;4965222;28;20058;-63
2021/11/16 10:32:18;;;;;;;68.72;25.75;;;;;;;4.97;90.46;101034.44;4973195;28;20073;-63
2021/11/16 10:35:08;;;;;;;70.75;27.95;;;;;;;5.04;90.47;101024.31;4973302;28;20455;-63
2021/11/16 10:37:56;;;;;;;78.38;27.48;;;;;;;5.11;90.31;101025.69;4972597;28;20074;-62
2021/11/16 10:40:43;;;;;;;69.65;25.77;;;;;;;5.12;90.13;101019.41;4973383;28;20054;-64
2021/11/16 10:43:50;;;;;;;66.80;25.50;;;;;;;5.12;89.79;101017.59;4973225;28;20477;-63
2021/11/16 10:46:40;;;;;;;72.93;26.50;;;;;;;5.11;89.74;101012.38;4971705;28;20065;-64
2021/11/16 10:49:25;;;;;;;70.78;26.75;;;;;;;5.16;89.70;101021.78;4981068;23;20066;-64
2021/11/16 10:52:26;;;;;;;62.25;25.50;;;;;;;5.10;89.61;101013.31;4991722;28;20084;-64
2021/11/16 10:55:12;;;;;;;67.07;25.52;;;;;;;5.10;89.75;101002.69;4992076;28;20077;-65
2021/11/16 10:58:04;;;;;;;71.78;24.70;;;;;;;5.06;89.76;101006.44;4992008;28;20072;-66
2021/11/16 11:00:53;;;;;;;65.13;25.48;;;;;;;5.12;90.33;101003.44;5005458;28;20057;-64
2021/11/16 11:03:42;;;;;;;66.28;25.23;;;;;;;5.19;89.24;101007.44;5012192;28;20131;-62
2021/11/16 11:06:34;;;;;;;68.13;24.27;;;;;;;5.23;89.73;101006.31;5011447;28;20060;-63
2021/11/16 11:09:20;;;;;;;73.28;26.10;;;;;;;5.21;89.48;101001.09;5011795;28;20056;-63
2021/11/16 11:12:20;;;;;;;65.63;26.50;;;;;;;5.27;89.32;101010.50;5012001;28;20061;-63
2021/11/16 11:15:32;;;;;;;64.63;25.75;;;;;;;5.35;88.98;101016.22;5011812;28;20053;-63
2021/11/16 11:18:33;;;;;;;65.25;25.08;;;;;;;5.40;89.21;101008.81;5012097;28;20514;-62
2021/11/16 11:21:34;;;;;;;64.15;24.27;;;;;;;5.22;89.02;101004.59;5011823;28;20112;-64
2021/11/16 11:24:22;;;;;;;67.78;25.80;;;;;;;5.19;89.79;101004.75;5011682;28;20180;-62
2021/11/16 11:27:19;;;;;;;73.70;26.90;;;;;;;5.18;89.94;100995.06;5011493;28;20065;-63
2021/11/16 11:30:08;;;;;;;68.03;24.55;;;;;;;5.22;89.69;100994.81;5011641;28;20412;-64
2021/11/16 11:32:55;;;;;;;59.75;24.27;;;;;;;5.23;89.40;100993.00;5011898;28;20172;-64
2021/11/16 11:35:40;;;;;;;68.28;25.90;;;;;;;5.20;89.61;100985.19;5011622;28;20507;-64
2021/11/16 11:38:36;;;;;;;66.10;25.15;;;;;;;5.28;89.07;100977.59;5015668;28;20057;-65
2021/11/16 11:41:22;;;;;;;77.55;27.20;;;;;;;5.14;90.02;100972.25;5015461;28;20415;-63
2021/11/16 11:44:17;;;;;;;67.20;25.13;;;;;;;5.11;90.45;100980.44;5015740;28;20064;-63
2021/11/16 11:47:04;;;;;;;67.90;25.63;;;;;;;5.03;90.86;100972.91;5015116;28;20085;-64
2021/11/16 11:49:49;;;;;;;66.78;25.63;;;;;;;5.37;90.10;100969.06;5015144;28;20056;-67
2021/11/16 11:52:34;;;;;;;62.83;23.92;;;;;;;5.38;89.56;100962.78;5015133;28;20507;-63
2021/11/16 11:55:20;;;;;;;68.53;25.10;;;;;;;5.23;90.33;100961.06;5007494;28;20604;-65
2021/11/16 11:58:06;;;;;;;71.90;25.23;;;;;;;5.28;90.57;100956.31;5015128;28;20061;-63
2021/11/16 12:00:52;;;;;;;;;;;;;;;5.24;90.16;100953.00;5015537;28;20327;-66
2021/11/16 12:03:40;;;;;;;70.57;25.27;;;;;;;5.16;90.18;100957.91;5014891;28;20509;-62
2021/11/16 12:06:26;;;;;;;75.18;26.67;;;;;;;5.15;90.31;100952.69;5012293;28;20069;-62
2021/11/16 12:09:12;;;;;;;71.40;26.35;;;;;;;5.19;90.50;100956.88;4995659;28;20057;-65
2021/11/16 12:11:58;;;;;;;59.03;24.35;;;;;;;5.25;90.03;100951.19;4995668;28;20555;-65
2021/11/16 12:14:48;;;;;;;67.13;24.92;;;;;;;5.29;90.16;100939.38;5013522;28;20068;-63
2021/11/16 12:17:40;;;;;;;68.93;25.00;;;;;;;5.29;89.73;100936.72;5014863;28;20144;-65
2021/11/16 12:20:37;;;;;;;66.75;25.42;;;;;;;5.34;90.17;100934.66;5014734;28;20053;-63
2021/11/16 12:23:42;;;;;;;60.33;25.02;;;;;;;5.33;90.26;100932.06;5014642;28;20068;-64
2021/11/16 12:26:29;;;;;;;73.50;27.80;;;;;;;5.33;89.92;100932.94;5014701;28;20164;-64
2021/11/16 12:29:17;;;;;;;76.55;27.27;;;;;;;5.42;89.32;100927.03;5014921;28;20148;-65
2021/11/16 12:32:16;;;;;;;60.30;24.58;;;;;;;5.38;89.01;100914.03;5014950;28;20518;-63
2021/11/16 12:35:05;;;;;;;59.28;24.27;;;;;;;5.28;90.31;100913.72;5014700;28;20208;-63
2021/11/16 12:37:53;;;;;;;69.45;23.95;;;;;;;5.24;90.46;100913.06;5014030;28;20507;-64
2021/11/16 12:40:41;;;;;;;68.38;25.60;;;;;;;5.20;90.21;100911.53;5014499;28;20057;-64
2021/11/16 12:43:30;;;;;;;65.72;25.10;;;;;;;5.24;90.69;100906.91;5014475;28;20423;-63
2021/11/16 12:46:18;;;;;;;74.57;27.17;;;;;;;5.25;90.84;100903.28;5013589;28;20053;-62
2021/11/16 12:49:05;;;;;;;61.88;24.98;;;;;;;5.29;90.53;100895.00;5013085;28;20065;-64
2021/11/16 12:51:54;;;;;;;;;;;;;;;5.35;90.22;100891.13;5014569;28;20067;-61
2021/11/16 12:54:40;;;;;;;78.10;27.33;;;;;;;5.38;90.63;100893.59;5013904;28;20139;-63
2021/11/16 12:57:29;;;;;;;65.63;25.80;;;;;;;5.36;90.21;100897.31;5013954;28;20112;-63